Time;durP1;ratioP1;P1;durP2;ratioP2;P2;SDS_P1;SDS_P2;PMS_P1;PMS_P2;Temp;Humidity;BMP_temperature;BMP_pressure;BME280_temperature;BME280_humidity;BME280_pressure;Samples;Min_cycle;Max_cycle;Signal;HPM_P1;HPM_P2
2022/09/29 15:24:53;;;;;;;0.30;0.30;;;;;;;;;;7381296;19;20276;-73
2022/09/29 16:00:33;;;;;;;0.30;0.30;;;;;;;;;;7385040;19;20138;-73
2022/09/29 16:03:13;;;;;;;0.30;0.30;;;;;;;;;;7383399;19;20132;-73
2022/09/29 16:05:41;;;;;;;0.30;0.30;;;;;;;;;;7385887;19;20566;-72
2022/09/29 16:08:20;;;;;;;0.30;0.30;;;;;;;;;;7381742;19;20462;-72
2022/09/29 16:10:54;;;;;;;0.30;0.30;;;;;;;;;;7383313;19;20449;-72
2022/09/29 16:13:26;;;;;;;0.30;0.30;;;;;;;;;;7386040;19;20113;-73
2022/09/29 16:15:55;;;;;;;0.40;0.40;;;;;;;;;;7388040;19;20126;-73
2022/09/29 16:18:48;;;;;;;1.02;0.57;;;;;;;;;;7385268;19;20217;-73
2022/09/29 16:21:21;;;;;;;0.30;0.30;;;;;;;;;;7382730;19;20121;-72
2022/09/29 16:24:36;;;;;;;0.20;0.20;;;;;;;;;;7383931;19;20184;-72
2022/09/29 16:27:02;;;;;;;0.30;0.30;;;;;;;;;;7385376;19;20450;-72
2022/09/29 16:29:36;;;;;;;0.30;0.30;;;;;;;;;;7378000;19;20133;-73
2022/09/29 16:32:39;;;;;;;0.20;0.20;;;;;;;;;;7380482;19;20675;-72
2022/09/29 16:35:47;;;;;;;0.30;0.30;;;;;;;;;;7381927;19;20138;-72
2022/09/29 16:38:22;;;;;;;0.30;0.30;;;;;;;;;;7377480;19;20140;-72
2022/09/29 16:40:48;;;;;;;0.30;0.30;;;;;;;;;;7382353;19;20158;-72
2022/09/29 16:43:26;;;;;;;0.28;0.28;;;;;;;;;;7385093;19;20133;-72
2022/09/29 16:45:52;;;;;;;0.20;0.20;;;;;;;;;;7378056;19;20181;-72
2022/09/29 16:48:18;;;;;;;0.30;0.30;;;;;;;;;;7382037;19;20178;-72
2022/09/29 16:50:55;;;;;;;0.30;0.30;;;;;;;;;;7379616;19;20129;-72
2022/09/29 16:53:31;;;;;;;0.30;0.30;;;;;;;;;;7385463;19;20109;-72
2022/09/29 16:56:08;;;;;;;0.30;0.30;;;;;;;;;;7386741;19;20138;-72
2022/09/29 16:58:33;;;;;;;0.30;0.30;;;;;;;;;;7380183;19;20521;-73
2022/09/29 17:01:05;;;;;;;0.20;0.20;;;;;;;;;;7379627;19;20109;-72
2022/09/29 17:03:30;;;;;;;0.20;0.20;;;;;;;;;;7380457;19;20121;-72
2022/09/29 17:05:56;;;;;;;0.30;0.30;;;;;;;;;;7374905;19;20117;-72
2022/09/29 17:08:23;;;;;;;0.20;0.20;;;;;;;;;;7371599;19;20101;-72
2022/09/29 17:10:50;;;;;;;0.30;0.30;;;;;;;;;;7380142;19;20117;-72
2022/09/29 17:13:15;;;;;;;0.30;0.30;;;;;;;;;;7383623;19;20113;-72
2022/09/29 17:16:08;;;;;;;0.30;0.30;;;;;;;;;;7378482;19;20148;-72
2022/09/29 17:18:34;;;;;;;0.30;0.30;;;;;;;;;;7377783;19;20113;-72
2022/09/29 17:24:24;;;;;;;0.73;0.73;;;;;;;;;;7383846;19;20140;-72
2022/09/29 17:29:34;;;;;;;0.30;0.30;;;;;;;;;;7382548;19;20122;-72
2022/09/29 17:32:01;;;;;;;0.30;0.30;;;;;;;;;;7384508;19;20114;-72
2022/09/29 17:37:11;;;;;;;0.20;0.20;;;;;;;;;;7380249;19;20128;-73
2022/09/29 17:39:37;;;;;;;0.30;0.30;;;;;;;;;;7376770;19;20121;-73
2022/09/29 17:42:02;;;;;;;0.40;0.40;;;;;;;;;;7376884;19;20117;-73
2022/09/29 17:44:27;;;;;;;0.20;0.20;;;;;;;;;;7380429;19;20190;-72
2022/09/29 17:50:39;;;;;;;0.30;0.30;;;;;;;;;;7383012;19;20130;-72
2022/09/29 17:53:05;;;;;;;0.20;0.20;;;;;;;;;;7381726;19;20121;-72
2022/09/29 17:55:31;;;;;;;0.30;0.30;;;;;;;;;;7372266;19;20159;-72
2022/09/29 18:01:20;;;;;;;0.30;0.30;;;;;;;;;;7384501;19;20534;-72
2022/09/29 18:03:46;;;;;;;0.20;0.20;;;;;;;;;;7384321;19;20185;-72
2022/09/29 18:06:20;;;;;;;0.20;0.20;;;;;;;;;;7382473;19;20129;-72
2022/09/29 18:08:45;;;;;;;0.20;0.20;;;;;;;;;;7380917;19;20110;-72
2022/09/29 18:11:11;;;;;;;0.50;0.50;;;;;;;;;;7371348;19;20121;-73
2022/09/29 18:13:36;;;;;;;0.30;0.30;;;;;;;;;;7370106;19;20501;-72
2022/09/29 18:16:02;;;;;;;0.30;0.30;;;;;;;;;;7378233;19;20579;-72
2022/09/29 18:18:27;;;;;;;0.30;0.30;;;;;;;;;;7374780;19;20112;-72
2022/09/29 18:20:53;;;;;;;0.33;0.33;;;;;;;;;;7376148;19;20124;-73
2022/09/29 18:23:19;;;;;;;0.30;0.30;;;;;;;;;;7376770;19;20594;-73
2022/09/29 18:25:46;;;;;;;0.30;0.30;;;;;;;;;;7376843;19;20126;-72
2022/09/29 18:28:14;;;;;;;0.30;0.30;;;;;;;;;;7381907;19;20208;-72
2022/09/29 18:30:40;;;;;;;0.30;0.30;;;;;;;;;;7383268;19;20586;-73
2022/09/29 18:33:12;;;;;;;0.30;0.30;;;;;;;;;;7373358;19;20125;-73
2022/09/29 18:35:40;;;;;;;0.50;0.50;;;;;;;;;;7381037;19;20161;-71
2022/09/29 18:38:05;;;;;;;0.20;0.20;;;;;;;;;;7379952;19;20458;-72
2022/09/29 18:40:31;;;;;;;0.30;0.30;;;;;;;;;;7371002;19;20105;-72
2022/09/29 18:42:58;;;;;;;0.30;0.30;;;;;;;;;;7372847;19;20234;-72
2022/09/29 18:45:26;;;;;;;0.30;0.30;;;;;;;;;;7368776;19;20791;-72
2022/09/29 18:47:57;;;;;;;0.45;0.45;;;;;;;;;;7366462;19;20109;-72
2022/09/29 18:50:26;;;;;;;0.30;0.30;;;;;;;;;;7377579;19;20636;-72
2022/09/29 18:52:51;;;;;;;0.30;0.30;;;;;;;;;;7379653;19;20133;-71
2022/09/29 18:55:19;;;;;;;0.20;0.20;;;;;;;;;;7372433;19;20670;-71
2022/09/29 18:57:46;;;;;;;0.30;0.30;;;;;;;;;;7372285;19;20141;-71
2022/09/29 19:00:13;;;;;;;0.30;0.30;;;;;;;;;;7373047;19;20518;-71
2022/09/29 19:02:40;;;;;;;0.20;0.20;;;;;;;;;;7375418;19;20133;-72
2022/09/29 19:05:06;;;;;;;0.20;0.20;;;;;;;;;;7373669;19;20185;-72
2022/09/29 19:07:32;;;;;;;0.30;0.30;;;;;;;;;;7377805;19;20862;-71
2022/09/29 19:09:58;;;;;;;0.30;0.30;;;;;;;;;;7381929;19;20147;-71
2022/09/29 19:12:26;;;;;;;0.30;0.30;;;;;;;;;;7385171;19;20670;-71
2022/09/29 19:14:52;;;;;;;0.30;0.30;;;;;;;;;;7384164;19;20139;-71
2022/09/29 19:17:21;;;;;;;0.30;0.30;;;;;;;;;;7388050;19;20148;-71
2022/09/29 19:19:47;;;;;;;0.30;0.30;;;;;;;;;;7391265;19;20151;-72
2022/09/29 19:22:13;;;;;;;0.30;0.30;;;;;;;;;;7395007;19;20113;-72
2022/09/29 19:24:38;;;;;;;0.20;0.20;;;;;;;;;;7393674;19;20132;-72
2022/09/29 19:27:03;;;;;;;0.30;0.30;;;;;;;;;;7393506;19;20109;-72
2022/09/29 19:29:53;;;;;;;0.30;0.30;;;;;;;;;;7395694;19;20129;-71
2022/09/29 19:32:19;;;;;;;0.30;0.30;;;;;;;;;;7387170;19;20117;-71
2022/09/29 19:34:44;;;;;;;0.30;0.30;;;;;;;;;;7391875;19;20617;-71
2022/09/29 19:37:09;;;;;;;0.30;0.30;;;;;;;;;;7391169;19;20134;-71
2022/09/29 19:39:35;;;;;;;0.40;0.40;;;;;;;;;;7390023;19;20589;-71
2022/09/29 19:42:00;;;;;;;0.30;0.30;;;;;;;;;;7392710;19;20133;-71
2022/09/29 19:44:26;;;;;;;0.30;0.30;;;;;;;;;;7392837;19;20117;-71
2022/09/29 19:46:52;;;;;;;0.30;0.30;;;;;;;;;;7390875;19;20139;-71
2022/09/29 19:49:17;;;;;;;0.30;0.30;;;;;;;;;;7392130;19;20109;-71
2022/09/29 19:51:48;;;;;;;0.30;0.30;;;;;;;;;;7396428;19;20131;-71
2022/09/29 19:54:19;;;;;;;0.20;0.20;;;;;;;;;;7392630;19;20136;-72
2022/09/29 19:56:51;;;;;;;0.30;0.30;;;;;;;;;;7392590;19;20128;-72
2022/09/29 19:59:22;;;;;;;0.20;0.20;;;;;;;;;;7392533;19;20105;-71
2022/09/29 20:01:49;;;;;;;0.30;0.30;;;;;;;;;;7390314;19;20233;-72
2022/09/29 20:04:17;;;;;;;0.30;0.30;;;;;;;;;;7390271;19;20164;-72
2022/09/29 20:06:43;;;;;;;0.30;0.30;;;;;;;;;;7388323;19;20599;-72
2022/09/29 20:09:08;;;;;;;0.30;0.30;;;;;;;;;;7390511;19;20124;-72
2022/09/29 20:11:36;;;;;;;0.30;0.30;;;;;;;;;;7390689;19;20602;-72
2022/09/29 20:14:03;;;;;;;0.20;0.20;;;;;;;;;;7390599;19;20168;-72
2022/09/29 20:16:35;;;;;;;0.30;0.30;;;;;;;;;;7394683;19;20121;-72
2022/09/29 20:19:01;;;;;;;0.30;0.30;;;;;;;;;;7385284;19;20139;-72
2022/09/29 20:21:26;;;;;;;0.20;0.20;;;;;;;;;;7373927;19;20121;-72
2022/09/29 20:23:52;;;;;;;0.30;0.30;;;;;;;;;;7383700;19;20177;-72
2022/09/29 20:26:18;;;;;;;0.30;0.30;;;;;;;;;;7378624;19;20127;-72
2022/09/29 20:28:47;;;;;;;0.50;0.50;;;;;;;;;;7381280;19;20110;-72
2022/09/29 20:31:13;;;;;;;0.30;0.30;;;;;;;;;;7376556;19;20141;-72
2022/09/29 20:33:39;;;;;;;0.30;0.30;;;;;;;;;;7385362;19;20165;-72
2022/09/29 20:36:04;;;;;;;0.30;0.30;;;;;;;;;;7384402;19;20112;-72
2022/09/29 20:38:33;;;;;;;0.40;0.40;;;;;;;;;;7381409;19;20185;-72
2022/09/29 20:40:59;;;;;;;0.30;0.30;;;;;;;;;;7382355;19;20120;-72
2022/09/29 20:43:25;;;;;;;0.30;0.30;;;;;;;;;;7380906;19;20627;-72
2022/09/29 20:45:58;;;;;;;0.30;0.30;;;;;;;;;;7382831;19;20125;-72
2022/09/29 20:48:23;;;;;;;0.30;0.30;;;;;;;;;;7382309;19;20125;-72
2022/09/29 20:50:48;;;;;;;0.37;0.37;;;;;;;;;;7384846;19;20193;-72
2022/09/29 20:53:14;;;;;;;0.30;0.30;;;;;;;;;;7385471;19;20124;-72
2022/09/29 20:55:39;;;;;;;0.30;0.30;;;;;;;;;;7381394;19;20129;-72
2022/09/29 20:58:04;;;;;;;0.30;0.30;;;;;;;;;;7383421;19;20189;-72
2022/09/29 21:00:30;;;;;;;0.30;0.30;;;;;;;;;;7378985;19;20110;-72
2022/09/29 21:02:56;;;;;;;0.30;0.30;;;;;;;;;;7382287;19;20144;-72
2022/09/29 21:05:21;;;;;;;0.30;0.30;;;;;;;;;;7382730;19;20125;-72
2022/09/29 21:07:47;;;;;;;0.20;0.20;;;;;;;;;;7386886;19;20629;-72
2022/09/29 21:10:12;;;;;;;0.30;0.30;;;;;;;;;;7381971;19;20529;-72
2022/09/29 21:12:38;;;;;;;0.30;0.30;;;;;;;;;;7378097;19;20133;-72
2022/09/29 21:15:04;;;;;;;0.23;0.23;;;;;;;;;;7377962;19;20177;-72
2022/09/29 21:17:29;;;;;;;0.20;0.20;;;;;;;;;;7376331;19;20121;-72
2022/09/29 21:19:55;;;;;;;0.30;0.30;;;;;;;;;;7375418;19;20125;-72
2022/09/29 21:22:20;;;;;;;0.30;0.30;;;;;;;;;;7381170;19;20117;-72
2022/09/29 21:24:46;;;;;;;0.63;0.63;;;;;;;;;;7374517;19;20125;-72
2022/09/29 21:27:11;;;;;;;0.30;0.30;;;;;;;;;;7373854;19;20124;-72
2022/09/29 21:29:37;;;;;;;0.30;0.30;;;;;;;;;;7374508;19;20110;-73
2022/09/29 21:32:03;;;;;;;0.30;0.30;;;;;;;;;;7373558;19;20243;-72
2022/09/29 21:34:28;;;;;;;0.20;0.20;;;;;;;;;;7373594;19;20132;-72
2022/09/29 21:36:53;;;;;;;0.25;0.25;;;;;;;;;;7377710;19;20106;-72
2022/09/29 21:39:19;;;;;;;0.30;0.30;;;;;;;;;;7378103;19;20109;-73
2022/09/29 21:41:47;;;;;;;0.30;0.30;;;;;;;;;;7382672;19;20496;-72
2022/09/29 21:44:15;;;;;;;0.30;0.30;;;;;;;;;;7375448;19;20427;-72
2022/09/29 21:46:41;;;;;;;0.20;0.20;;;;;;;;;;7375675;19;20109;-73
2022/09/29 21:49:08;;;;;;;0.20;0.20;;;;;;;;;;7369018;19;20134;-72
2022/09/29 21:51:39;;;;;;;0.30;0.30;;;;;;;;;;7376557;19;20125;-72
2022/09/29 21:54:09;;;;;;;0.30;0.30;;;;;;;;;;7373921;19;20402;-72
2022/09/29 21:56:39;;;;;;;0.30;0.30;;;;;;;;;;7377884;19;20165;-72
2022/09/29 21:59:04;;;;;;;0.20;0.20;;;;;;;;;;7379330;19;20571;-72
2022/09/29 22:01:30;;;;;;;0.30;0.30;;;;;;;;;;7376749;19;20097;-72
2022/09/29 22:03:55;;;;;;;0.30;0.30;;;;;;;;;;7383071;19;20117;-72
2022/09/29 22:06:26;;;;;;;0.20;0.20;;;;;;;;;;7383832;19;20109;-72
2022/09/29 22:08:52;;;;;;;0.30;0.30;;;;;;;;;;7380924;19;20116;-72
2022/09/29 22:11:19;;;;;;;0.30;0.30;;;;;;;;;;7382014;19;20113;-72
2022/09/29 22:13:48;;;;;;;0.20;0.20;;;;;;;;;;7383295;19;20129;-72
2022/09/29 22:16:16;;;;;;;0.30;0.30;;;;;;;;;;7383892;19;20169;-73
2022/09/29 22:18:42;;;;;;;0.30;0.30;;;;;;;;;;7384414;19;20545;-72
2022/09/29 22:21:11;;;;;;;0.30;0.30;;;;;;;;;;7376989;19;20582;-72
2022/09/29 22:23:36;;;;;;;0.30;0.30;;;;;;;;;;7381832;19;20125;-72
2022/09/29 22:26:02;;;;;;;0.23;0.23;;;;;;;;;;7379469;19;20124;-72
2022/09/29 22:28:28;;;;;;;0.23;0.23;;;;;;;;;;7376322;19;20184;-72
2022/09/29 22:30:53;;;;;;;0.30;0.30;;;;;;;;;;7379820;19;20113;-72
2022/09/29 22:33:19;;;;;;;0.30;0.30;;;;;;;;;;7382980;19;20113;-72
2022/09/29 22:35:45;;;;;;;0.30;0.30;;;;;;;;;;7381415;19;20184;-72
2022/09/29 22:38:10;;;;;;;0.20;0.20;;;;;;;;;;7382780;19;20196;-72
2022/09/29 22:40:38;;;;;;;0.30;0.30;;;;;;;;;;7378686;19;20136;-72
2022/09/29 22:43:03;;;;;;;0.30;0.30;;;;;;;;;;7375064;19;20449;-72
2022/09/29 22:45:29;;;;;;;0.30;0.30;;;;;;;;;;7363716;19;20535;-72
2022/09/29 22:47:56;;;;;;;0.20;0.20;;;;;;;;;;7377089;19;20109;-72
2022/09/29 22:50:23;;;;;;;0.30;0.30;;;;;;;;;;7376682;19;20113;-71
2022/09/29 22:52:54;;;;;;;0.30;0.30;;;;;;;;;;7377486;19;20117;-71
2022/09/29 22:55:20;;;;;;;0.30;0.30;;;;;;;;;;7381145;19;20133;-71
2022/09/29 22:57:45;;;;;;;0.30;0.30;;;;;;;;;;7376922;19;20125;-71
2022/09/29 23:00:11;;;;;;;0.30;0.30;;;;;;;;;;7376789;19;20121;-71
2022/09/29 23:02:36;;;;;;;0.30;0.30;;;;;;;;;;7373168;19;20121;-72
2022/09/29 23:05:01;;;;;;;0.30;0.30;;;;;;;;;;7369674;19;20132;-71
2022/09/29 23:07:27;;;;;;;0.30;0.30;;;;;;;;;;7373724;19;20487;-72
2022/09/29 23:09:52;;;;;;;0.33;0.33;;;;;;;;;;7377122;19;20116;-71
2022/09/29 23:12:18;;;;;;;0.30;0.30;;;;;;;;;;7380453;19;20113;-71
2022/09/29 23:14:43;;;;;;;0.20;0.20;;;;;;;;;;7377214;19;20121;-71
2022/09/29 23:17:08;;;;;;;0.30;0.30;;;;;;;;;;7371742;19;20596;-71
2022/09/29 23:19:33;;;;;;;0.30;0.30;;;;;;;;;;7370153;19;20125;-71
2022/09/29 23:21:59;;;;;;;0.40;0.40;;;;;;;;;;7374440;19;20125;-71
2022/09/29 23:24:24;;;;;;;0.30;0.30;;;;;;;;;;7365041;19;20507;-71
2022/09/29 23:26:50;;;;;;;0.30;0.30;;;;;;;;;;7372602;19;20172;-71
2022/09/29 23:29:16;;;;;;;0.30;0.30;;;;;;;;;;7377502;19;20109;-71
2022/09/29 23:31:41;;;;;;;0.20;0.20;;;;;;;;;;7367096;19;20130;-71
2022/09/29 23:34:10;;;;;;;0.20;0.20;;;;;;;;;;7372044;19;20557;-71
2022/09/29 23:36:35;;;;;;;0.30;0.30;;;;;;;;;;7373837;19;20164;-71
2022/09/29 23:39:12;;;;;;;0.30;0.30;;;;;;;;;;7370841;19;20552;-71
2022/09/29 23:41:49;;;;;;;0.30;0.30;;;;;;;;;;7363511;19;20124;-71
2022/09/29 23:44:20;;;;;;;0.83;0.83;;;;;;;;;;7363851;19;20474;-71
2022/09/29 23:46:46;;;;;;;0.60;0.60;;;;;;;;;;7366954;19;20124;-71
2022/09/29 23:49:17;;;;;;;0.30;0.30;;;;;;;;;;7371274;19;20097;-71
2022/09/29 23:51:44;;;;;;;0.30;0.30;;;;;;;;;;7368599;19;20104;-71
2022/09/29 23:54:11;;;;;;;0.30;0.30;;;;;;;;;;7369541;19;20140;-71
2022/09/29 23:56:37;;;;;;;0.20;0.20;;;;;;;;;;7378038;19;20126;-72
2022/09/29 23:59:04;;;;;;;0.30;0.30;;;;;;;;;;7384469;19;20105;-71
